sensor_id;sensor_type;location;lat;lon;timestamp;temperature;humidity
7232;DHT22;3657;49.630;11.018;2023-04-15T00:01:35;8.30;99.90
7232;DHT22;3657;49.630;11.018;2023-04-15T00:04:02;8.30;99.90
7232;DHT22;3657;49.630;11.018;2023-04-15T00:06:29;8.20;99.90
7232;DHT22;3657;49.630;11.018;2023-04-15T00:08:57;8.20;99.90
7232;DHT22;3657;49.630;11.018;2023-04-15T00:11:23;8.20;99.90
7232;DHT22;3657;49.630;11.018;2023-04-15T00:13:50;8.20;99.90
7232;DHT22;3657;49.630;11.018;2023-04-15T00:16:17;8.20;99.90
7232;DHT22;3657;49.630;11.018;2023-04-15T00:18:43;8.10;99.90
7232;DHT22;3657;49.630;11.018;2023-04-15T00:21:10;8.10;99.90
7232;DHT22;3657;49.630;11.018;2023-04-15T00:23:36;8.10;99.90
7232;DHT22;3657;49.630;11.018;2023-04-15T00:26:04;8.10;99.90
7232;DHT22;3657;49.630;11.018;2023-04-15T00:28:31;8.10;99.90
7232;DHT22;3657;49.630;11.018;2023-04-15T00:30:58;8.10;99.90
7232;DHT22;3657;49.630;11.018;2023-04-15T00:33:25;8.00;99.90
7232;DHT22;3657;49.630;11.018;2023-04-15T00:35:51;8.00;99.90
7232;DHT22;3657;49.630;11.018;2023-04-15T00:38:18;8.00;99.90
7232;DHT22;3657;49.630;11.018;2023-04-15T00:40:45;8.00;99.90
7232;DHT22;3657;49.630;11.018;2023-04-15T00:43:13;8.00;99.90
7232;DHT22;3657;49.630;11.018;2023-04-15T00:45:40;7.90;99.90
7232;DHT22;3657;49.630;11.018;2023-04-15T00:48:07;7.90;99.90
7232;DHT22;3657;49.630;11.018;2023-04-15T00:50:34;7.90;99.90
7232;DHT22;3657;49.630;11.018;2023-04-15T00:53:01;7.90;99.90
7232;DHT22;3657;49.630;11.018;2023-04-15T00:55:28;7.90;99.90
7232;DHT22;3657;49.630;11.018;2023-04-15T00:57:55;7.90;99.90
7232;DHT22;3657;49.630;11.018;2023-04-15T01:00:23;7.80;99.90
7232;DHT22;3657;49.630;11.018;2023-04-15T01:02:51;7.80;99.90
7232;DHT22;3657;49.630;11.018;2023-04-15T01:05:17;7.80;99.90
7232;DHT22;3657;49.630;11.018;2023-04-15T01:07:46;7.80;99.90
7232;DHT22;3657;49.630;11.018;2023-04-15T01:10:13;7.80;99.90
7232;DHT22;3657;49.630;11.018;2023-04-15T01:12:39;7.80;99.90
7232;DHT22;3657;49.630;11.018;2023-04-15T01:15:07;7.70;99.90
7232;DHT22;3657;49.630;11.018;2023-04-15T01:17:37;7.70;99.90
7232;DHT22;3657;49.630;11.018;2023-04-15T01:20:05;7.70;99.90
7232;DHT22;3657;49.630;11.018;2023-04-15T01:22:34;7.70;99.90
7232;DHT22;3657;49.630;11.018;2023-04-15T01:25:05;7.70;99.90
7232;DHT22;3657;49.630;11.018;2023-04-15T01:27:38;7.70;99.90
7232;DHT22;3657;49.630;11.018;2023-04-15T01:30:06;7.60;99.90
7232;DHT22;3657;49.630;11.018;2023-04-15T01:32:33;7.60;99.90
7232;DHT22;3657;49.630;11.018;2023-04-15T01:35:00;7.60;99.90
7232;DHT22;3657;49.630;11.018;2023-04-15T01:37:27;7.60;99.90
7232;DHT22;3657;49.630;11.018;2023-04-15T01:39:54;7.60;99.90
7232;DHT22;3657;49.630;11.018;2023-04-15T01:42:21;7.60;99.90
7232;DHT22;3657;49.630;11.018;2023-04-15T01:44:49;7.60;99.90
7232;DHT22;3657;49.630;11.018;2023-04-15T01:47:16;7.60;99.90
7232;DHT22;3657;49.630;11.018;2023-04-15T01:49:42;7.60;99.90
7232;DHT22;3657;49.630;11.018;2023-04-15T01:52:09;7.50;99.90
7232;DHT22;3657;49.630;11.018;2023-04-15T01:54:36;7.50;99.90
7232;DHT22;3657;49.630;11.018;2023-04-15T01:57:02;7.50;99.90
7232;DHT22;3657;49.630;11.018;2023-04-15T01:59:30;7.50;99.90
7232;DHT22;3657;49.630;11.018;2023-04-15T02:01:58;7.50;99.90
7232;DHT22;3657;49.630;11.018;2023-04-15T02:04:25;7.50;99.90
7232;DHT22;3657;49.630;11.018;2023-04-15T02:06:52;7.50;99.90
7232;DHT22;3657;49.630;11.018;2023-04-15T02:09:19;7.50;99.90
7232;DHT22;3657;49.630;11.018;2023-04-15T02:11:45;7.50;99.90
7232;DHT22;3657;49.630;11.018;2023-04-15T02:14:12;7.40;99.90
7232;DHT22;3657;49.630;11.018;2023-04-15T02:16:38;7.40;99.90
7232;DHT22;3657;49.630;11.018;2023-04-15T02:19:06;7.40;99.90
7232;DHT22;3657;49.630;11.018;2023-04-15T02:21:33;7.40;99.90
7232;DHT22;3657;49.630;11.018;2023-04-15T02:24:00;7.40;99.90
7232;DHT22;3657;49.630;11.018;2023-04-15T02:26:28;7.40;99.90
7232;DHT22;3657;49.630;11.018;2023-04-15T02:28:57;7.40;99.90
7232;DHT22;3657;49.630;11.018;2023-04-15T02:31:24;7.40;99.90
7232;DHT22;3657;49.630;11.018;2023-04-15T02:33:50;7.30;99.90
7232;DHT22;3657;49.630;11.018;2023-04-15T02:36:18;7.30;99.90
7232;DHT22;3657;49.630;11.018;2023-04-15T02:38:46;7.20;99.90
7232;DHT22;3657;49.630;11.018;2023-04-15T02:41:12;7.20;99.90
7232;DHT22;3657;49.630;11.018;2023-04-15T02:43:39;7.20;99.90
7232;DHT22;3657;49.630;11.018;2023-04-15T02:46:06;7.20;99.90
7232;DHT22;3657;49.630;11.018;2023-04-15T02:48:33;7.20;99.90
7232;DHT22;3657;49.630;11.018;2023-04-15T02:51:13;7.20;99.90
7232;DHT22;3657;49.630;11.018;2023-04-15T02:53:41;7.20;99.90
7232;DHT22;3657;49.630;11.018;2023-04-15T02:56:08;7.20;99.90
7232;DHT22;3657;49.630;11.018;2023-04-15T02:58:36;7.20;99.90
7232;DHT22;3657;49.630;11.018;2023-04-15T03:01:02;7.20;99.90
7232;DHT22;3657;49.630;11.018;2023-04-15T03:03:29;7.20;99.90
7232;DHT22;3657;49.630;11.018;2023-04-15T03:05:56;7.20;99.90
7232;DHT22;3657;49.630;11.018;2023-04-15T03:08:22;7.20;99.90
7232;DHT22;3657;49.630;11.018;2023-04-15T03:10:51;7.10;99.90
7232;DHT22;3657;49.630;11.018;2023-04-15T03:13:19;7.10;99.90
7232;DHT22;3657;49.630;11.018;2023-04-15T03:15:46;7.10;99.90
7232;DHT22;3657;49.630;11.018;2023-04-15T03:18:12;7.10;99.90
7232;DHT22;3657;49.630;11.018;2023-04-15T03:20:39;7.10;99.90
7232;DHT22;3657;49.630;11.018;2023-04-15T03:23:06;7.10;99.90
7232;DHT22;3657;49.630;11.018;2023-04-15T03:25:32;7.10;99.90
7232;DHT22;3657;49.630;11.018;2023-04-15T03:28:01;7.10;99.90
7232;DHT22;3657;49.630;11.018;2023-04-15T03:30:27;7.10;99.90
7232;DHT22;3657;49.630;11.018;2023-04-15T03:32:54;7.10;99.90
7232;DHT22;3657;49.630;11.018;2023-04-15T03:35:21;7.10;99.90
7232;DHT22;3657;49.630;11.018;2023-04-15T03:37:47;7.10;99.90
7232;DHT22;3657;49.630;11.018;2023-04-15T03:40:14;7.10;99.90
7232;DHT22;3657;49.630;11.018;2023-04-15T03:42:41;7.10;99.90
7232;DHT22;3657;49.630;11.018;2023-04-15T03:45:10;7.10;99.90
7232;DHT22;3657;49.630;11.018;2023-04-15T03:47:36;7.10;99.90
7232;DHT22;3657;49.630;11.018;2023-04-15T03:50:04;7.10;99.90
7232;DHT22;3657;49.630;11.018;2023-04-15T03:52:31;7.00;99.90
7232;DHT22;3657;49.630;11.018;2023-04-15T03:54:58;7.00;99.90
7232;DHT22;3657;49.630;11.018;2023-04-15T03:57:25;7.00;99.90
7232;DHT22;3657;49.630;11.018;2023-04-15T03:59:51;7.00;99.90
7232;DHT22;3657;49.630;11.018;2023-04-15T04:02:19;7.00;99.90
7232;DHT22;3657;49.630;11.018;2023-04-15T04:04:47;7.00;99.90
7232;DHT22;3657;49.630;11.018;2023-04-15T04:07:15;7.00;99.90
7232;DHT22;3657;49.630;11.018;2023-04-15T04:09:41;7.00;99.90
7232;DHT22;3657;49.630;11.018;2023-04-15T04:12:08;7.00;99.90
7232;DHT22;3657;49.630;11.018;2023-04-15T04:14:35;7.00;99.90
7232;DHT22;3657;49.630;11.018;2023-04-15T04:17:01;7.00;99.90
7232;DHT22;3657;49.630;11.018;2023-04-15T04:19:29;7.00;99.90
7232;DHT22;3657;49.630;11.018;2023-04-15T04:21:56;7.00;99.90
7232;DHT22;3657;49.630;11.018;2023-04-15T04:24:23;6.90;99.90
7232;DHT22;3657;49.630;11.018;2023-04-15T04:26:49;7.00;99.90
7232;DHT22;3657;49.630;11.018;2023-04-15T04:29:16;6.90;99.90
7232;DHT22;3657;49.630;11.018;2023-04-15T04:31:43;6.90;99.90
7232;DHT22;3657;49.630;11.018;2023-04-15T04:34:10;6.90;99.90
7232;DHT22;3657;49.630;11.018;2023-04-15T04:36:38;6.90;99.90
7232;DHT22;3657;49.630;11.018;2023-04-15T04:39:04;6.90;99.90
7232;DHT22;3657;49.630;11.018;2023-04-15T04:41:31;6.90;99.90
7232;DHT22;3657;49.630;11.018;2023-04-15T04:43:58;6.90;99.90
7232;DHT22;3657;49.630;11.018;2023-04-15T04:46:25;6.90;99.90
7232;DHT22;3657;49.630;11.018;2023-04-15T04:48:51;6.90;99.90
7232;DHT22;3657;49.630;11.018;2023-04-15T04:51:18;6.90;99.90
7232;DHT22;3657;49.630;11.018;2023-04-15T04:53:46;6.80;99.90
7232;DHT22;3657;49.630;11.018;2023-04-15T04:56:13;6.80;99.90
7232;DHT22;3657;49.630;11.018;2023-04-15T04:58:39;6.80;99.90
7232;DHT22;3657;49.630;11.018;2023-04-15T05:01:06;6.80;99.90
7232;DHT22;3657;49.630;11.018;2023-04-15T05:03:33;6.80;99.90
7232;DHT22;3657;49.630;11.018;2023-04-15T05:06:00;6.80;99.90
7232;DHT22;3657;49.630;11.018;2023-04-15T05:08:30;6.80;99.90
7232;DHT22;3657;49.630;11.018;2023-04-15T05:10:58;6.80;99.90
7232;DHT22;3657;49.630;11.018;2023-04-15T05:13:25;6.80;99.90
7232;DHT22;3657;49.630;11.018;2023-04-15T05:15:51;6.80;99.90
7232;DHT22;3657;49.630;11.018;2023-04-15T05:18:18;6.80;99.90
7232;DHT22;3657;49.630;11.018;2023-04-15T05:20:45;6.80;99.90
7232;DHT22;3657;49.630;11.018;2023-04-15T05:23:12;6.80;99.90
7232;DHT22;3657;49.630;11.018;2023-04-15T05:25:38;6.80;99.90
7232;DHT22;3657;49.630;11.018;2023-04-15T05:28:07;6.80;99.90
7232;DHT22;3657;49.630;11.018;2023-04-15T05:30:33;6.80;99.90
7232;DHT22;3657;49.630;11.018;2023-04-15T05:33:00;6.80;99.90
7232;DHT22;3657;49.630;11.018;2023-04-15T05:35:27;6.80;99.90
7232;DHT22;3657;49.630;11.018;2023-04-15T05:37:53;6.80;99.90
7232;DHT22;3657;49.630;11.018;2023-04-15T05:40:20;6.80;99.90
7232;DHT22;3657;49.630;11.018;2023-04-15T05:42:47;6.80;99.90
7232;DHT22;3657;49.630;11.018;2023-04-15T05:45:15;6.80;99.90
7232;DHT22;3657;49.630;11.018;2023-04-15T05:47:42;6.80;99.90
7232;DHT22;3657;49.630;11.018;2023-04-15T05:50:09;6.80;99.90
7232;DHT22;3657;49.630;11.018;2023-04-15T05:52:36;6.80;99.90
7232;DHT22;3657;49.630;11.018;2023-04-15T05:55:02;6.80;99.90
7232;DHT22;3657;49.630;11.018;2023-04-15T05:57:30;6.80;99.90
7232;DHT22;3657;49.630;11.018;2023-04-15T05:59:57;6.80;99.90
7232;DHT22;3657;49.630;11.018;2023-04-15T06:02:25;6.80;99.90
7232;DHT22;3657;49.630;11.018;2023-04-15T06:04:52;6.80;99.90
7232;DHT22;3657;49.630;11.018;2023-04-15T06:07:18;6.80;99.90
7232;DHT22;3657;49.630;11.018;2023-04-15T06:09:45;6.80;99.90
7232;DHT22;3657;49.630;11.018;2023-04-15T06:12:12;6.80;99.90
7232;DHT22;3657;49.630;11.018;2023-04-15T06:14:38;6.80;99.90
7232;DHT22;3657;49.630;11.018;2023-04-15T06:17:05;6.80;99.90
7232;DHT22;3657;49.630;11.018;2023-04-15T06:19:34;6.90;99.90
7232;DHT22;3657;49.630;11.018;2023-04-15T06:22:01;6.90;99.90
7232;DHT22;3657;49.630;11.018;2023-04-15T06:24:28;6.90;99.90
7232;DHT22;3657;49.630;11.018;2023-04-15T06:26:54;6.90;99.90
7232;DHT22;3657;49.630;11.018;2023-04-15T06:29:22;6.90;99.90
7232;DHT22;3657;49.630;11.018;2023-04-15T06:31:48;6.90;99.90
7232;DHT22;3657;49.630;11.018;2023-04-15T06:34:15;6.90;99.90
7232;DHT22;3657;49.630;11.018;2023-04-15T06:36:43;6.90;99.90
7232;DHT22;3657;49.630;11.018;2023-04-15T06:39:10;6.90;99.90
7232;DHT22;3657;49.630;11.018;2023-04-15T06:41:36;6.90;99.90
7232;DHT22;3657;49.630;11.018;2023-04-15T06:44:03;6.90;99.90
7232;DHT22;3657;49.630;11.018;2023-04-15T06:46:30;6.90;99.90
7232;DHT22;3657;49.630;11.018;2023-04-15T06:48:57;6.90;99.90
7232;DHT22;3657;49.630;11.018;2023-04-15T06:51:23;6.90;99.90
7232;DHT22;3657;49.630;11.018;2023-04-15T06:53:51;6.90;99.90
7232;DHT22;3657;49.630;11.018;2023-04-15T06:56:18;7.00;99.90
7232;DHT22;3657;49.630;11.018;2023-04-15T06:58:45;7.00;99.90
7232;DHT22;3657;49.630;11.018;2023-04-15T07:01:11;7.00;99.90
7232;DHT22;3657;49.630;11.018;2023-04-15T07:03:38;7.00;99.90
7232;DHT22;3657;49.630;11.018;2023-04-15T07:06:06;7.00;99.90
7232;DHT22;3657;49.630;11.018;2023-04-15T07:08:33;7.10;99.90
7232;DHT22;3657;49.630;11.018;2023-04-15T07:11:01;7.10;99.90
7232;DHT22;3657;49.630;11.018;2023-04-15T07:13:30;7.10;99.90
7232;DHT22;3657;49.630;11.018;2023-04-15T07:15:57;7.10;99.90
7232;DHT22;3657;49.630;11.018;2023-04-15T07:18:23;7.10;99.90
7232;DHT22;3657;49.630;11.018;2023-04-15T07:20:50;7.10;99.90
7232;DHT22;3657;49.630;11.018;2023-04-15T07:23:17;7.10;99.90
7232;DHT22;3657;49.630;11.018;2023-04-15T07:25:44;7.10;99.90
7232;DHT22;3657;49.630;11.018;2023-04-15T07:28:12;7.20;99.90
7232;DHT22;3657;49.630;11.018;2023-04-15T07:30:38;7.20;99.90
7232;DHT22;3657;49.630;11.018;2023-04-15T07:33:06;7.20;99.90
7232;DHT22;3657;49.630;11.018;2023-04-15T07:35:32;7.20;99.90
7232;DHT22;3657;49.630;11.018;2023-04-15T07:37:59;7.20;99.90
7232;DHT22;3657;49.630;11.018;2023-04-15T07:40:25;7.10;99.90
7232;DHT22;3657;49.630;11.018;2023-04-15T07:42:52;7.10;99.90
7232;DHT22;3657;49.630;11.018;2023-04-15T07:45:20;7.20;99.90
7232;DHT22;3657;49.630;11.018;2023-04-15T07:47:47;7.20;99.90
7232;DHT22;3657;49.630;11.018;2023-04-15T07:50:15;7.20;99.90
7232;DHT22;3657;49.630;11.018;2023-04-15T07:52:42;7.20;99.90
7232;DHT22;3657;49.630;11.018;2023-04-15T07:55:09;7.20;99.90
7232;DHT22;3657;49.630;11.018;2023-04-15T07:57:36;7.30;99.90
7232;DHT22;3657;49.630;11.018;2023-04-15T08:00:04;7.30;99.90
7232;DHT22;3657;49.630;11.018;2023-04-15T08:02:34;7.30;99.90
7232;DHT22;3657;49.630;11.018;2023-04-15T08:05:01;7.30;99.90
7232;DHT22;3657;49.630;11.018;2023-04-15T08:07:28;7.40;99.90
7232;DHT22;3657;49.630;11.018;2023-04-15T08:09:55;7.30;99.90
7232;DHT22;3657;49.630;11.018;2023-04-15T08:12:22;7.40;99.90
7232;DHT22;3657;49.630;11.018;2023-04-15T08:14:49;7.30;99.90
7232;DHT22;3657;49.630;11.018;2023-04-15T08:17:16;7.30;99.90
7232;DHT22;3657;49.630;11.018;2023-04-15T08:19:44;7.30;99.90
7232;DHT22;3657;49.630;11.018;2023-04-15T08:22:12;7.40;99.90
7232;DHT22;3657;49.630;11.018;2023-04-15T08:24:39;7.40;99.90
7232;DHT22;3657;49.630;11.018;2023-04-15T08:27:06;7.40;99.90
7232;DHT22;3657;49.630;11.018;2023-04-15T08:29:33;7.40;99.90
7232;DHT22;3657;49.630;11.018;2023-04-15T08:32:00;7.40;99.90
7232;DHT22;3657;49.630;11.018;2023-04-15T08:34:27;7.40;99.90
7232;DHT22;3657;49.630;11.018;2023-04-15T08:36:55;7.40;99.90
7232;DHT22;3657;49.630;11.018;2023-04-15T08:39:22;7.50;99.90
7232;DHT22;3657;49.630;11.018;2023-04-15T08:41:55;7.50;99.90
7232;DHT22;3657;49.630;11.018;2023-04-15T08:44:23;7.50;99.90
7232;DHT22;3657;49.630;11.018;2023-04-15T08:46:50;7.50;99.90
7232;DHT22;3657;49.630;11.018;2023-04-15T08:49:18;7.50;99.90
7232;DHT22;3657;49.630;11.018;2023-04-15T08:51:46;7.40;99.90
7232;DHT22;3657;49.630;11.018;2023-04-15T08:54:15;7.40;99.90
7232;DHT22;3657;49.630;11.018;2023-04-15T08:56:42;7.50;99.90
7232;DHT22;3657;49.630;11.018;2023-04-15T08:59:08;7.50;99.90
7232;DHT22;3657;49.630;11.018;2023-04-15T09:01:36;7.40;99.90
7232;DHT22;3657;49.630;11.018;2023-04-15T09:04:03;7.50;99.90
7232;DHT22;3657;49.630;11.018;2023-04-15T09:06:32;7.50;99.90
7232;DHT22;3657;49.630;11.018;2023-04-15T09:08:59;7.50;99.90
7232;DHT22;3657;49.630;11.018;2023-04-15T09:11:29;7.40;99.90
7232;DHT22;3657;49.630;11.018;2023-04-15T09:13:56;7.40;99.90
7232;DHT22;3657;49.630;11.018;2023-04-15T09:16:22;7.50;99.90
7232;DHT22;3657;49.630;11.018;2023-04-15T09:18:49;7.50;99.90
7232;DHT22;3657;49.630;11.018;2023-04-15T09:21:16;7.50;99.90
7232;DHT22;3657;49.630;11.018;2023-04-15T09:23:53;7.50;99.90
7232;DHT22;3657;49.630;11.018;2023-04-15T09:26:31;7.50;99.90
7232;DHT22;3657;49.630;11.018;2023-04-15T09:29:03;7.50;99.90
7232;DHT22;3657;49.630;11.018;2023-04-15T09:31:31;7.50;99.90
7232;DHT22;3657;49.630;11.018;2023-04-15T09:33:58;7.50;99.90
7232;DHT22;3657;49.630;11.018;2023-04-15T09:36:25;7.60;99.90
7232;DHT22;3657;49.630;11.018;2023-04-15T09:38:55;7.60;99.90
7232;DHT22;3657;49.630;11.018;2023-04-15T09:41:22;7.60;99.90
7232;DHT22;3657;49.630;11.018;2023-04-15T09:43:51;7.60;99.90
7232;DHT22;3657;49.630;11.018;2023-04-15T09:46:17;7.60;99.90
7232;DHT22;3657;49.630;11.018;2023-04-15T09:48:44;7.60;99.90
7232;DHT22;3657;49.630;11.018;2023-04-15T09:51:11;7.60;99.90
7232;DHT22;3657;49.630;11.018;2023-04-15T09:53:38;7.60;99.90
7232;DHT22;3657;49.630;11.018;2023-04-15T09:56:05;7.60;99.90
7232;DHT22;3657;49.630;11.018;2023-04-15T09:58:34;7.60;99.90
7232;DHT22;3657;49.630;11.018;2023-04-15T10:01:04;7.70;99.90
7232;DHT22;3657;49.630;11.018;2023-04-15T10:03:33;7.70;99.90
7232;DHT22;3657;49.630;11.018;2023-04-15T10:06:01;7.70;99.90
7232;DHT22;3657;49.630;11.018;2023-04-15T10:08:30;7.70;99.90
7232;DHT22;3657;49.630;11.018;2023-04-15T10:10:57;7.80;99.90
7232;DHT22;3657;49.630;11.018;2023-04-15T10:13:26;7.80;99.90
7232;DHT22;3657;49.630;11.018;2023-04-15T10:15:58;7.80;99.90
7232;DHT22;3657;49.630;11.018;2023-04-15T10:18:27;7.80;99.90
7232;DHT22;3657;49.630;11.018;2023-04-15T10:20:54;7.80;99.90
7232;DHT22;3657;49.630;11.018;2023-04-15T10:23:21;7.90;99.90
7232;DHT22;3657;49.630;11.018;2023-04-15T10:25:51;7.90;99.90
7232;DHT22;3657;49.630;11.018;2023-04-15T10:28:18;7.90;99.90
7232;DHT22;3657;49.630;11.018;2023-04-15T10:30:47;7.90;99.90
7232;DHT22;3657;49.630;11.018;2023-04-15T10:33:16;7.90;99.90
7232;DHT22;3657;49.630;11.018;2023-04-15T10:35:47;7.90;99.90
7232;DHT22;3657;49.630;11.018;2023-04-15T10:38:33;7.90;99.90
7232;DHT22;3657;49.630;11.018;2023-04-15T10:41:12;8.00;99.90
7232;DHT22;3657;49.630;11.018;2023-04-15T10:43:39;8.00;99.90
7232;DHT22;3657;49.630;11.018;2023-04-15T10:46:10;8.00;99.90
7232;DHT22;3657;49.630;11.018;2023-04-15T10:48:37;8.10;99.90
7232;DHT22;3657;49.630;11.018;2023-04-15T10:51:05;8.10;99.90
7232;DHT22;3657;49.630;11.018;2023-04-15T10:53:32;8.20;99.90
7232;DHT22;3657;49.630;11.018;2023-04-15T10:55:58;8.20;99.90
7232;DHT22;3657;49.630;11.018;2023-04-15T10:58:25;8.20;99.90
7232;DHT22;3657;49.630;11.018;2023-04-15T11:01:06;8.10;99.90
7232;DHT22;3657;49.630;11.018;2023-04-15T11:03:37;8.10;99.90
7232;DHT22;3657;49.630;11.018;2023-04-15T11:06:06;8.10;99.90
7232;DHT22;3657;49.630;11.018;2023-04-15T11:08:57;8.10;99.90
7232;DHT22;3657;49.630;11.018;2023-04-15T11:12:04;8.10;99.90
7232;DHT22;3657;49.630;11.018;2023-04-15T11:14:32;8.20;99.90
7232;DHT22;3657;49.630;11.018;2023-04-15T11:16:58;8.20;99.90
7232;DHT22;3657;49.630;11.018;2023-04-15T11:19:25;8.30;99.90
7232;DHT22;3657;49.630;11.018;2023-04-15T11:21:53;8.40;99.90
7232;DHT22;3657;49.630;11.018;2023-04-15T11:24:23;8.40;99.90
7232;DHT22;3657;49.630;11.018;2023-04-15T11:26:56;8.50;99.90
7232;DHT22;3657;49.630;11.018;2023-04-15T11:29:28;8.50;99.90
7232;DHT22;3657;49.630;11.018;2023-04-15T11:32:03;8.50;99.90
7232;DHT22;3657;49.630;11.018;2023-04-15T11:34:31;8.50;99.90
7232;DHT22;3657;49.630;11.018;2023-04-15T11:36:59;8.50;99.90
7232;DHT22;3657;49.630;11.018;2023-04-15T11:39:28;8.50;99.90
7232;DHT22;3657;49.630;11.018;2023-04-15T11:41:54;8.50;99.90
7232;DHT22;3657;49.630;11.018;2023-04-15T11:44:21;8.50;99.90
7232;DHT22;3657;49.630;11.018;2023-04-15T11:46:48;8.50;99.90
7232;DHT22;3657;49.630;11.018;2023-04-15T11:49:25;8.50;99.90
7232;DHT22;3657;49.630;11.018;2023-04-15T11:51:52;8.60;99.90
7232;DHT22;3657;49.630;11.018;2023-04-15T11:54:20;8.60;99.90
7232;DHT22;3657;49.630;11.018;2023-04-15T11:56:49;8.70;99.90
7232;DHT22;3657;49.630;11.018;2023-04-15T11:59:16;8.70;99.90
7232;DHT22;3657;49.630;11.018;2023-04-15T12:01:42;8.80;99.90
7232;DHT22;3657;49.630;11.018;2023-04-15T12:04:11;8.80;99.90
7232;DHT22;3657;49.630;11.018;2023-04-15T12:06:38;8.80;99.90
7232;DHT22;3657;49.630;11.018;2023-04-15T12:09:10;8.80;99.90
7232;DHT22;3657;49.630;11.018;2023-04-15T12:11:43;8.90;99.90
7232;DHT22;3657;49.630;11.018;2023-04-15T12:14:15;8.90;99.90
7232;DHT22;3657;49.630;11.018;2023-04-15T12:16:43;9.00;99.90
7232;DHT22;3657;49.630;11.018;2023-04-15T12:19:12;9.00;99.90
7232;DHT22;3657;49.630;11.018;2023-04-15T12:21:40;9.00;99.90
7232;DHT22;3657;49.630;11.018;2023-04-15T12:24:09;9.00;99.90
7232;DHT22;3657;49.630;11.018;2023-04-15T12:26:40;9.00;99.90
7232;DHT22;3657;49.630;11.018;2023-04-15T12:29:10;9.00;99.90
7232;DHT22;3657;49.630;11.018;2023-04-15T12:31:46;9.00;99.90
7232;DHT22;3657;49.630;11.018;2023-04-15T12:34:13;9.00;99.90
7232;DHT22;3657;49.630;11.018;2023-04-15T12:36:41;9.00;99.90
7232;DHT22;3657;49.630;11.018;2023-04-15T12:39:08;9.00;99.90
7232;DHT22;3657;49.630;11.018;2023-04-15T12:41:34;9.00;99.90
7232;DHT22;3657;49.630;11.018;2023-04-15T12:44:01;9.00;99.90
7232;DHT22;3657;49.630;11.018;2023-04-15T12:46:29;9.10;99.90
7232;DHT22;3657;49.630;11.018;2023-04-15T12:48:56;9.10;99.90
7232;DHT22;3657;49.630;11.018;2023-04-15T12:51:22;9.10;99.90
7232;DHT22;3657;49.630;11.018;2023-04-15T12:53:50;9.20;99.90
7232;DHT22;3657;49.630;11.018;2023-04-15T12:56:17;9.20;99.90
7232;DHT22;3657;49.630;11.018;2023-04-15T12:58:44;9.30;99.90
7232;DHT22;3657;49.630;11.018;2023-04-15T13:01:10;9.30;99.90
7232;DHT22;3657;49.630;11.018;2023-04-15T13:03:38;9.30;99.90
7232;DHT22;3657;49.630;11.018;2023-04-15T13:06:05;9.30;99.90
7232;DHT22;3657;49.630;11.018;2023-04-15T13:08:32;9.30;99.90
7232;DHT22;3657;49.630;11.018;2023-04-15T13:10:59;9.30;99.90
7232;DHT22;3657;49.630;11.018;2023-04-15T13:13:26;9.30;99.90
7232;DHT22;3657;49.630;11.018;2023-04-15T13:15:53;9.30;99.90
7232;DHT22;3657;49.630;11.018;2023-04-15T13:18:19;9.40;99.90
7232;DHT22;3657;49.630;11.018;2023-04-15T13:20:50;9.40;99.90
7232;DHT22;3657;49.630;11.018;2023-04-15T13:23:16;9.50;99.90
7232;DHT22;3657;49.630;11.018;2023-04-15T13:25:43;9.50;99.90
7232;DHT22;3657;49.630;11.018;2023-04-15T13:28:10;9.50;99.90
7232;DHT22;3657;49.630;11.018;2023-04-15T13:30:37;9.50;99.90
7232;DHT22;3657;49.630;11.018;2023-04-15T13:33:04;9.50;99.90
7232;DHT22;3657;49.630;11.018;2023-04-15T13:35:31;9.50;99.90
7232;DHT22;3657;49.630;11.018;2023-04-15T13:37:59;9.50;99.90
7232;DHT22;3657;49.630;11.018;2023-04-15T13:40:26;9.50;99.90
7232;DHT22;3657;49.630;11.018;2023-04-15T13:42:53;9.50;99.90
7232;DHT22;3657;49.630;11.018;2023-04-15T13:45:20;9.50;99.90
7232;DHT22;3657;49.630;11.018;2023-04-15T13:47:47;9.40;99.90
7232;DHT22;3657;49.630;11.018;2023-04-15T13:50:13;9.40;99.90
7232;DHT22;3657;49.630;11.018;2023-04-15T13:52:40;9.40;99.90
7232;DHT22;3657;49.630;11.018;2023-04-15T13:55:09;9.40;99.90
7232;DHT22;3657;49.630;11.018;2023-04-15T13:57:36;9.40;99.90
7232;DHT22;3657;49.630;11.018;2023-04-15T14:00:03;9.40;99.90
7232;DHT22;3657;49.630;11.018;2023-04-15T14:02:30;9.40;99.90
7232;DHT22;3657;49.630;11.018;2023-04-15T14:04:57;9.40;99.90
7232;DHT22;3657;49.630;11.018;2023-04-15T14:07:23;9.50;99.90
7232;DHT22;3657;49.630;11.018;2023-04-15T14:09:50;9.40;99.90
7232;DHT22;3657;49.630;11.018;2023-04-15T14:12:18;9.50;99.90
7232;DHT22;3657;49.630;11.018;2023-04-15T14:14:44;9.50;99.90
7232;DHT22;3657;49.630;11.018;2023-04-15T14:17:11;9.50;99.90
7232;DHT22;3657;49.630;11.018;2023-04-15T14:19:38;9.50;99.90
7232;DHT22;3657;49.630;11.018;2023-04-15T14:22:05;9.40;99.90
7232;DHT22;3657;49.630;11.018;2023-04-15T14:24:31;9.40;99.90
7232;DHT22;3657;49.630;11.018;2023-04-15T14:26:58;9.40;99.90
7232;DHT22;3657;49.630;11.018;2023-04-15T14:29:28;9.40;99.90
7232;DHT22;3657;49.630;11.018;2023-04-15T14:31:55;9.40;99.90
7232;DHT22;3657;49.630;11.018;2023-04-15T14:34:23;9.40;99.90
7232;DHT22;3657;49.630;11.018;2023-04-15T14:36:50;9.40;99.90
7232;DHT22;3657;49.630;11.018;2023-04-15T14:39:17;9.40;99.90
7232;DHT22;3657;49.630;11.018;2023-04-15T14:41:44;9.40;99.90
7232;DHT22;3657;49.630;11.018;2023-04-15T14:44:11;9.40;99.90
7232;DHT22;3657;49.630;11.018;2023-04-15T14:46:39;9.40;99.90
7232;DHT22;3657;49.630;11.018;2023-04-15T14:49:06;9.40;99.90
7232;DHT22;3657;49.630;11.018;2023-04-15T14:51:33;9.40;99.90
7232;DHT22;3657;49.630;11.018;2023-04-15T14:54:00;9.40;99.90
7232;DHT22;3657;49.630;11.018;2023-04-15T14:56:26;9.40;99.90
7232;DHT22;3657;49.630;11.018;2023-04-15T14:58:53;9.40;99.90
7232;DHT22;3657;49.630;11.018;2023-04-15T15:01:20;9.40;99.90
7232;DHT22;3657;49.630;11.018;2023-04-15T15:03:48;9.40;99.90
7232;DHT22;3657;49.630;11.018;2023-04-15T15:06:15;9.40;99.90
7232;DHT22;3657;49.630;11.018;2023-04-15T15:08:41;9.40;99.90
7232;DHT22;3657;49.630;11.018;2023-04-15T15:11:08;9.30;99.90
7232;DHT22;3657;49.630;11.018;2023-04-15T15:13:35;9.30;99.90
7232;DHT22;3657;49.630;11.018;2023-04-15T15:16:01;9.30;99.90
7232;DHT22;3657;49.630;11.018;2023-04-15T15:18:29;9.30;99.90
7232;DHT22;3657;49.630;11.018;2023-04-15T15:20:57;9.30;99.90
7232;DHT22;3657;49.630;11.018;2023-04-15T15:23:23;9.30;99.90
7232;DHT22;3657;49.630;11.018;2023-04-15T15:25:50;9.30;99.90
7232;DHT22;3657;49.630;11.018;2023-04-15T15:28:16;9.30;99.90
7232;DHT22;3657;49.630;11.018;2023-04-15T15:30:43;9.20;99.90
7232;DHT22;3657;49.630;11.018;2023-04-15T15:33:10;9.20;99.90
7232;DHT22;3657;49.630;11.018;2023-04-15T15:35:36;9.20;99.90
7232;DHT22;3657;49.630;11.018;2023-04-15T15:38:04;9.20;99.90
7232;DHT22;3657;49.630;11.018;2023-04-15T15:40:31;9.20;99.90
7232;DHT22;3657;49.630;11.018;2023-04-15T15:42:57;9.20;99.90
7232;DHT22;3657;49.630;11.018;2023-04-15T15:45:24;9.20;99.90
7232;DHT22;3657;49.630;11.018;2023-04-15T15:47:51;9.20;99.90
7232;DHT22;3657;49.630;11.018;2023-04-15T15:50:18;9.10;99.90
7232;DHT22;3657;49.630;11.018;2023-04-15T15:52:45;9.10;99.90
7232;DHT22;3657;49.630;11.018;2023-04-15T15:55:13;9.10;99.90
7232;DHT22;3657;49.630;11.018;2023-04-15T15:57:40;9.10;99.90
7232;DHT22;3657;49.630;11.018;2023-04-15T16:00:08;9.10;99.90
7232;DHT22;3657;49.630;11.018;2023-04-15T16:02:35;9.10;99.90
7232;DHT22;3657;49.630;11.018;2023-04-15T16:05:02;9.10;99.90